Terminal Aerodrome Forecast
Issued by NWS

Home | Current Version | Previous Version | Text Only | Print | Product List | Glossary On
Versions: 1 2 3 4 5 6 7 8 9 10 11 12 13 14 15 16 17 18 19 20
000
FTUS44 KTSA 311700 RRA
TAFRVS
TAF
KRVS 311740Z 3118/0118 00000KT P6SM OVC015
     FM312100 08004KT P6SM OVC025
     FM010000 10005KT P6SM BKN250
     FM010900 00000KT 1SM BR SCT250
     FM011400 05002KT P6SM SCT250=

USA.gov is the U.S. government's official web portal to all federal, state and local government web resources and services.